createdAt,value
2018-10-18T00:01:21.989Z,17.37
2018-10-18T00:03:50.528Z,15.63
2018-10-18T00:06:19.465Z,17.53
2018-10-18T00:08:48.090Z,19.27
2018-10-18T00:11:16.620Z,19.17
2018-10-18T00:13:45.175Z,19.07
2018-10-18T00:16:13.705Z,17.83
2018-10-18T00:18:42.329Z,18.27
2018-10-18T00:21:10.984Z,17.37
2018-10-18T00:23:39.565Z,17.43
2018-10-18T00:26:08.121Z,18.23
2018-10-18T00:28:36.721Z,20.80
2018-10-18T00:31:05.353Z,19.07
2018-10-18T00:33:33.948Z,18.00
2018-10-18T00:36:02.528Z,19.17
2018-10-18T00:38:31.377Z,21.20
2018-10-18T00:40:59.972Z,18.43
2018-10-18T00:43:28.533Z,19.83
2018-10-18T00:45:57.128Z,19.37
2018-10-18T00:48:25.701Z,18.73
2018-10-18T00:50:54.285Z,17.07
2018-10-18T00:53:22.853Z,18.13
2018-10-18T00:55:51.464Z,16.80
2018-10-18T00:58:20.019Z,16.53
2018-10-18T01:00:48.881Z,19.03
2018-10-18T01:03:17.431Z,17.50
2018-10-18T01:05:46.021Z,15.23
2018-10-18T01:08:14.799Z,17.50
2018-10-18T01:10:43.324Z,22.50
2018-10-18T01:13:11.885Z,18.50
2018-10-18T01:15:40.498Z,18.23
2018-10-18T01:18:09.394Z,17.80
2018-10-18T01:20:37.925Z,18.27
2018-10-18T01:23:07.236Z,18.10
2018-10-18T01:25:35.789Z,17.03
2018-10-18T01:28:04.655Z,17.43
2018-10-18T01:30:33.205Z,17.57
2018-10-18T01:33:01.733Z,20.13
2018-10-18T01:35:30.341Z,18.47
2018-10-18T01:37:58.877Z,17.70
2018-10-18T01:40:27.453Z,16.23
2018-10-18T01:42:55.974Z,16.57
2018-10-18T01:45:24.552Z,16.97
2018-10-18T01:47:53.183Z,16.47
2018-10-18T01:50:21.717Z,17.00
2018-10-18T01:52:50.254Z,14.80
2018-10-18T01:55:18.825Z,15.70
2018-10-18T01:57:47.678Z,13.20
2018-10-18T02:00:16.284Z,14.73
2018-10-18T02:02:44.800Z,15.63
2018-10-18T02:05:13.380Z,14.30
2018-10-18T02:07:41.944Z,15.77
2018-10-18T02:10:10.501Z,15.80
2018-10-18T02:12:39.053Z,14.70
2018-10-18T02:15:09.858Z,15.70
2018-10-18T02:17:38.412Z,15.33
2018-10-18T02:20:07.620Z,15.23
2018-10-18T02:22:36.275Z,16.03
2018-10-18T02:25:05.447Z,15.63
2018-10-18T02:27:34.264Z,16.03
2018-10-18T02:30:02.863Z,15.67
2018-10-18T02:32:31.921Z,15.00
2018-10-18T02:35:00.472Z,14.70
2018-10-18T02:37:29.068Z,16.80
2018-10-18T02:39:57.623Z,16.27
2018-10-18T02:42:26.215Z,14.27
2018-10-18T02:44:54.773Z,14.80
2018-10-18T02:47:23.368Z,15.37
2018-10-18T02:49:51.918Z,16.03
2018-10-18T02:52:20.509Z,16.50
2018-10-18T02:54:49.056Z,15.10
2018-10-18T02:57:17.629Z,14.63
2018-10-18T02:59:46.174Z,15.27
2018-10-18T03:02:14.772Z,15.63
2018-10-18T03:04:43.313Z,16.47
2018-10-18T03:07:11.921Z,16.27
2018-10-18T03:09:40.469Z,15.40
2018-10-18T03:12:09.089Z,15.27
2018-10-18T03:14:37.925Z,16.33
2018-10-18T03:17:06.666Z,15.53
2018-10-18T03:19:35.242Z,15.70
2018-10-18T03:22:03.829Z,14.30
2018-10-18T03:24:32.617Z,16.03
2018-10-18T03:27:01.145Z,15.23
2018-10-18T03:29:29.701Z,16.93
2018-10-18T03:31:58.241Z,14.20
2018-10-18T03:34:26.810Z,14.07
2018-10-18T03:36:55.349Z,16.10
2018-10-18T03:39:23.916Z,16.30
2018-10-18T03:41:52.470Z,15.33
2018-10-18T03:44:21.026Z,15.20
2018-10-18T03:46:49.569Z,15.37
2018-10-18T03:49:18.138Z,14.53
2018-10-18T03:51:46.753Z,15.73
2018-10-18T03:54:15.338Z,16.67
2018-10-18T03:56:43.858Z,15.70
2018-10-18T03:59:12.416Z,14.80
2018-10-18T04:01:40.953Z,15.20
2018-10-18T04:04:09.573Z,16.53
2018-10-18T04:06:38.125Z,14.47
2018-10-18T04:09:08.576Z,14.80
2018-10-18T04:11:37.125Z,17.03
2018-10-18T04:14:05.943Z,16.70
2018-10-18T04:16:34.489Z,16.60
2018-10-18T04:19:03.093Z,16.60
2018-10-18T04:21:31.904Z,14.63
2018-10-18T04:24:00.468Z,17.10
2018-10-18T04:26:29.008Z,16.47
2018-10-18T04:28:57.568Z,17.23
2018-10-18T04:31:26.164Z,15.03
2018-10-18T04:33:54.744Z,16.00
2018-10-18T04:36:23.816Z,15.80
2018-10-18T04:38:52.829Z,15.63
2018-10-18T04:41:21.859Z,14.93
2018-10-18T04:43:51.104Z,16.00
2018-10-18T04:46:20.133Z,15.43
2018-10-18T04:48:50.894Z,17.80
2018-10-18T04:51:19.487Z,14.63
2018-10-18T04:53:48.044Z,13.77
2018-10-18T04:56:16.697Z,16.33
2018-10-18T04:58:45.252Z,14.20
2018-10-18T05:01:13.931Z,14.83
2018-10-18T05:03:45.916Z,15.53
2018-10-18T05:06:14.617Z,15.67
2018-10-18T05:08:43.578Z,15.60
2018-10-18T05:11:12.186Z,15.57
2018-10-18T05:13:40.897Z,15.47
2018-10-18T05:16:09.661Z,17.17
2018-10-18T05:18:38.905Z,16.37
2018-10-18T05:21:07.852Z,14.77
2018-10-18T05:23:36.563Z,17.20
2018-10-18T05:26:06.244Z,17.97
2018-10-18T05:28:34.860Z,17.80
2018-10-18T05:31:03.481Z,16.00
2018-10-18T05:33:32.253Z,14.80
2018-10-18T05:36:00.925Z,16.90
2018-10-18T05:38:29.738Z,15.57
2018-10-18T05:40:58.320Z,16.50
2018-10-18T05:43:27.317Z,15.23
2018-10-18T05:45:56.477Z,16.40
2018-10-18T05:48:25.353Z,15.77
2018-10-18T05:50:53.973Z,17.10
2018-10-18T05:53:22.596Z,17.13
2018-10-18T05:55:51.133Z,16.30
2018-10-18T05:58:19.668Z,14.67
2018-10-18T06:00:48.257Z,15.53
2018-10-18T06:03:16.912Z,16.50
2018-10-18T06:05:45.816Z,16.20
2018-10-18T06:08:14.458Z,16.27
2018-10-18T06:10:54.229Z,16.13
2018-10-18T06:13:22.782Z,19.23
2018-10-18T06:15:51.372Z,17.20
2018-10-18T06:18:20.029Z,14.47
2018-10-18T06:20:48.617Z,16.70
2018-10-18T06:23:17.204Z,16.70
2018-10-18T06:25:45.776Z,15.67
2018-10-18T06:28:14.331Z,17.13
2018-10-18T06:30:42.911Z,16.40
2018-10-18T06:33:11.531Z,17.50
2018-10-18T06:35:40.115Z,18.17
2018-10-18T06:38:08.676Z,15.47
2018-10-18T06:40:37.253Z,18.77
2018-10-18T06:43:05.909Z,17.60
2018-10-18T06:45:34.508Z,15.97
2018-10-18T06:48:03.112Z,17.33
2018-10-18T06:50:31.693Z,17.83
2018-10-18T06:53:00.245Z,17.33
2018-10-18T06:55:28.827Z,17.07
2018-10-18T06:57:57.395Z,18.20
2018-10-18T07:00:26.297Z,18.23
2018-10-18T07:02:54.937Z,16.70
2018-10-18T07:05:23.704Z,19.20
2018-10-18T07:07:52.457Z,19.13
2018-10-18T07:10:21.291Z,18.53
2018-10-18T07:12:50.100Z,18.00
2018-10-18T07:15:18.762Z,20.40
2018-10-18T07:17:47.610Z,21.00
2018-10-18T07:20:16.357Z,18.80
2018-10-18T07:22:45.080Z,20.23
2018-10-18T07:25:15.136Z,21.80
2018-10-18T07:27:44.165Z,24.03
2018-10-18T07:30:14.257Z,23.30
2018-10-18T07:32:43.172Z,23.27
2018-10-18T07:35:13.088Z,26.03
2018-10-18T07:37:41.807Z,27.77
2018-10-18T07:40:13.478Z,23.93
2018-10-18T07:42:42.208Z,29.53
2018-10-18T07:45:12.075Z,28.77
2018-10-18T07:47:40.951Z,26.80
2018-10-18T07:50:10.222Z,27.10
2018-10-18T07:52:38.948Z,28.63
2018-10-18T07:55:08.417Z,30.30
2018-10-18T07:57:37.209Z,30.43
2018-10-18T08:00:11.363Z,33.47
2018-10-18T08:02:40.241Z,35.33
2018-10-18T08:05:09.395Z,35.90
2018-10-18T08:07:38.348Z,34.07
2018-10-18T08:10:10.702Z,34.20
2018-10-18T08:12:39.506Z,34.07
2018-10-18T08:15:09.364Z,34.03
2018-10-18T08:17:37.961Z,36.93
2018-10-18T08:20:07.376Z,37.07
2018-10-18T08:22:36.039Z,36.93
2018-10-18T08:25:04.946Z,36.13
2018-10-18T08:27:33.772Z,36.30
2018-10-18T08:30:02.596Z,36.47
2018-10-18T08:32:31.181Z,38.53
2018-10-18T08:34:59.732Z,39.90
2018-10-18T08:37:28.346Z,40.13
2018-10-18T08:39:57.237Z,39.17
2018-10-18T08:42:25.865Z,38.53
2018-10-18T08:44:54.608Z,43.30
2018-10-18T08:47:23.212Z,43.50
2018-10-18T08:49:51.853Z,45.13
2018-10-18T08:52:20.437Z,46.03
2018-10-18T08:54:49.021Z,42.73
2018-10-18T08:57:17.657Z,44.93
2018-10-18T08:59:46.201Z,45.17
2018-10-18T09:02:14.776Z,46.90
2018-10-18T09:04:43.348Z,48.73
2018-10-18T09:07:11.979Z,45.90
2018-10-18T09:09:40.513Z,45.87
2018-10-18T09:12:09.112Z,44.80
2018-10-18T09:14:37.704Z,43.03
2018-10-18T09:17:06.329Z,41.63
2018-10-18T09:19:35.029Z,39.30
2018-10-18T09:22:03.619Z,38.90
2018-10-18T09:24:32.148Z,38.80
2018-10-18T09:27:00.729Z,38.03
2018-10-18T09:29:29.313Z,37.10
2018-10-18T09:31:57.920Z,37.57
2018-10-18T09:34:26.489Z,36.27
2018-10-18T09:36:55.082Z,37.83
2018-10-18T09:39:23.637Z,37.33
2018-10-18T09:41:52.205Z,35.87
2018-10-18T09:44:20.816Z,36.03
2018-10-18T09:46:49.349Z,36.23
2018-10-18T09:49:17.970Z,37.50
2018-10-18T09:51:46.460Z,35.33
2018-10-18T09:54:15.264Z,36.10
2018-10-18T09:56:44.142Z,35.23
2018-10-18T09:59:12.901Z,35.00
2018-10-18T10:01:46.824Z,33.00
2018-10-18T10:04:15.600Z,51.43
2018-10-18T10:06:44.389Z,47.83
2018-10-18T10:09:13.025Z,32.57
2018-10-18T10:11:42.205Z,39.10
2018-10-18T10:14:10.858Z,35.90
2018-10-18T10:16:39.585Z,35.30
2018-10-18T10:19:08.357Z,33.10
2018-10-18T10:21:37.003Z,33.80
2018-10-18T10:24:05.874Z,34.53
2018-10-18T10:26:34.529Z,32.73
2018-10-18T10:29:03.271Z,32.33
2018-10-18T10:31:31.946Z,31.77
2018-10-18T10:34:00.532Z,32.03
2018-10-18T10:36:29.205Z,30.87
2018-10-18T10:38:57.960Z,27.87
2018-10-18T10:41:26.606Z,30.67
2018-10-18T10:43:55.311Z,28.40
2018-10-18T10:46:24.052Z,26.70
2018-10-18T10:48:52.779Z,25.63
2018-10-18T10:51:21.428Z,25.00
2018-10-18T10:53:50.144Z,24.10
2018-10-18T10:56:18.820Z,23.87
2018-10-18T10:58:47.601Z,23.53
2018-10-18T11:01:23.911Z,23.67
2018-10-18T11:03:54.015Z,23.67
2018-10-18T11:06:23.085Z,23.80
2018-10-18T11:08:51.825Z,23.10
2018-10-18T11:11:21.249Z,23.40
2018-10-18T11:13:50.249Z,23.70
2018-10-18T11:16:18.861Z,23.10
2018-10-18T11:18:47.738Z,22.07
2018-10-18T11:21:17.551Z,22.90
2018-10-18T11:23:46.317Z,22.57
2018-10-18T11:26:15.277Z,20.93
2018-10-18T11:28:43.964Z,21.00
2018-10-18T11:31:13.233Z,24.03
2018-10-18T11:33:41.972Z,21.27
2018-10-18T11:36:11.147Z,22.07
2018-10-18T11:38:39.960Z,22.40
2018-10-18T11:41:08.724Z,22.93
2018-10-18T11:43:41.674Z,21.67
2018-10-18T11:46:10.432Z,22.20
2018-10-18T11:48:39.104Z,21.40
2018-10-18T11:51:07.913Z,20.27
2018-10-18T11:53:42.708Z,22.70
2018-10-18T11:56:11.787Z,18.93
2018-10-18T11:58:44.017Z,20.07
2018-10-18T12:01:15.713Z,20.70
2018-10-18T12:03:44.372Z,20.70
2018-10-18T12:06:17.455Z,19.27
2018-10-18T12:08:47.952Z,19.53
2018-10-18T12:11:16.800Z,20.43
2018-10-18T12:13:49.361Z,20.50
2018-10-18T12:16:21.197Z,21.33
2018-10-18T12:18:52.282Z,19.57
2018-10-18T12:21:27.165Z,20.67
2018-10-18T12:23:55.862Z,18.60
2018-10-18T12:26:31.642Z,19.53
2018-10-18T12:29:01.712Z,19.00
2018-10-18T12:31:30.293Z,18.97
2018-10-18T12:33:59.642Z,20.90
2018-10-18T12:36:29.411Z,19.27
2018-10-18T12:38:58.354Z,18.03
2018-10-18T12:41:31.903Z,17.97
2018-10-18T12:44:04.616Z,17.00
2018-10-18T12:46:36.449Z,17.27
2018-10-18T12:49:11.103Z,17.43
2018-10-18T12:51:46.958Z,16.40
2018-10-18T12:54:17.083Z,15.43
2018-10-18T12:56:47.404Z,15.57
2018-10-18T12:59:17.192Z,15.30
2018-10-18T13:01:45.912Z,14.80
2018-10-18T13:04:18.900Z,14.50
2018-10-18T13:06:52.306Z,14.30
2018-10-18T13:09:24.164Z,13.83
2018-10-18T13:11:58.703Z,14.23
2018-10-18T13:14:32.172Z,14.73
2018-10-18T13:17:03.097Z,15.50
2018-10-18T13:19:33.511Z,14.23
2018-10-18T13:22:02.825Z,14.60
2018-10-18T13:24:38.322Z,15.13
2018-10-18T13:27:09.918Z,14.10
2018-10-18T13:29:39.727Z,14.33
2018-10-18T13:32:14.235Z,15.40
2018-10-18T13:34:45.672Z,16.67
2018-10-18T13:37:18.293Z,15.10
2018-10-18T13:39:50.616Z,16.47
2018-10-18T13:42:22.706Z,16.83
2018-10-18T13:44:51.321Z,18.10
2018-10-18T13:47:24.883Z,17.20
2018-10-18T13:49:56.223Z,17.67
2018-10-18T13:52:32.654Z,19.20
2018-10-18T13:55:02.515Z,18.47
2018-10-18T13:57:36.842Z,17.67
2018-10-18T14:00:27.800Z,18.00
2018-10-18T14:03:00.165Z,19.73
2018-10-18T14:05:40.808Z,18.40
2018-10-18T14:08:15.844Z,19.30
2018-10-18T14:10:50.388Z,17.70
2018-10-18T14:13:21.781Z,17.50
2018-10-18T14:15:52.596Z,18.80
2018-10-18T14:18:31.866Z,18.87
2018-10-18T14:23:40.063Z,18.13
2018-10-18T14:26:15.223Z,18.67
2018-10-18T14:28:48.479Z,18.43
2018-10-18T14:31:23.585Z,18.43
2018-10-18T14:33:57.915Z,18.50
2018-10-18T14:36:37.224Z,18.87
2018-10-18T14:39:20.331Z,25.63
2018-10-18T14:41:55.115Z,28.40
2018-10-18T14:44:29.908Z,26.80
2018-10-18T14:47:11.271Z,27.27
2018-10-18T14:49:44.193Z,26.87
2018-10-18T14:52:13.638Z,27.97
2018-10-18T14:54:42.326Z,29.70
2018-10-18T14:57:14.727Z,30.03
2018-10-18T14:59:43.598Z,32.47
2018-10-18T15:02:15.245Z,35.00
2018-10-18T15:04:46.573Z,38.30
2018-10-18T15:07:15.808Z,35.50
2018-10-18T15:09:44.852Z,37.63
2018-10-18T15:12:13.820Z,38.43
2018-10-18T15:14:42.802Z,37.07
2018-10-18T15:17:11.920Z,40.03
2018-10-18T15:19:41.129Z,41.10
2018-10-18T15:22:10.710Z,42.17
2018-10-18T15:24:39.853Z,40.17
2018-10-18T15:27:16.256Z,40.10
2018-10-18T15:29:50.618Z,40.80
2018-10-18T15:32:19.375Z,42.10
2018-10-18T15:34:50.447Z,41.80
2018-10-18T15:37:19.117Z,42.60
2018-10-18T15:39:49.413Z,43.90
2018-10-18T15:42:18.141Z,42.77
2018-10-18T15:44:47.028Z,40.17
2018-10-18T15:47:19.221Z,41.57
2018-10-18T15:49:50.771Z,40.93
2018-10-18T15:52:23.590Z,41.40
2018-10-18T15:55:00.171Z,43.60
2018-10-18T15:57:34.990Z,41.37
2018-10-18T16:00:11.364Z,45.37
2018-10-18T16:02:46.916Z,42.90
2018-10-18T16:05:23.397Z,43.57
2018-10-18T16:08:00.015Z,43.73
2018-10-18T16:10:35.821Z,42.53
2018-10-18T16:13:11.900Z,43.17
2018-10-18T16:15:46.676Z,43.77
2018-10-18T16:18:23.228Z,43.20
2018-10-18T16:21:01.032Z,46.13
2018-10-18T16:23:38.751Z,44.57
2018-10-18T16:26:25.005Z,44.93
2018-10-18T16:29:14.441Z,45.70
2018-10-18T16:31:46.172Z,44.70
2018-10-18T16:34:14.892Z,43.53
2018-10-18T16:36:43.894Z,45.10
2018-10-18T16:39:13.848Z,45.33
2018-10-18T16:41:42.808Z,44.00
2018-10-18T16:44:11.539Z,44.73
2018-10-18T16:46:40.205Z,44.80
2018-10-18T16:49:08.957Z,44.93
2018-10-18T16:51:37.853Z,46.07
2018-10-18T16:54:10.004Z,43.17
2018-10-18T16:56:40.285Z,46.20
2018-10-18T16:59:08.893Z,82.23
2018-10-18T17:01:41.184Z,47.33
2018-10-18T17:04:11.647Z,46.70
2018-10-18T17:06:41.636Z,46.77
2018-10-18T17:09:15.338Z,46.67
2018-10-18T17:11:46.749Z,46.90
2018-10-18T17:14:18.904Z,47.47
2018-10-18T17:16:54.306Z,46.87
2018-10-18T17:22:04.436Z,46.87
2018-10-18T17:24:40.597Z,45.77
2018-10-18T17:27:13.237Z,48.07
2018-10-18T17:29:47.502Z,46.40
2018-10-18T17:32:17.095Z,47.83
2018-10-18T17:34:45.989Z,47.90
2018-10-18T17:37:14.538Z,47.83
2018-10-18T17:39:43.121Z,47.47
2018-10-18T17:42:11.764Z,49.57
2018-10-18T17:44:40.273Z,48.47
2018-10-18T17:47:08.867Z,49.43
2018-10-18T17:49:37.425Z,49.67
2018-10-18T17:52:06.260Z,46.33
2018-10-18T17:54:34.773Z,48.83
2018-10-18T17:57:03.340Z,46.77
2018-10-18T17:59:33.299Z,48.60
2018-10-18T18:02:01.876Z,49.13
2018-10-18T18:04:39.009Z,49.90
2018-10-18T18:07:12.284Z,47.93
2018-10-18T18:09:40.890Z,51.63
2018-10-18T18:12:09.493Z,46.57
2018-10-18T18:14:42.915Z,52.33
2018-10-18T18:17:12.556Z,49.50
2018-10-18T18:19:44.128Z,50.60
2018-10-18T18:22:22.164Z,50.57
2018-10-18T18:24:51.051Z,49.60
2018-10-18T18:27:20.085Z,51.37
2018-10-18T18:29:48.875Z,49.70
2018-10-18T18:32:19.162Z,49.80
2018-10-18T18:34:47.777Z,48.87
2018-10-18T18:37:18.213Z,49.20
2018-10-18T18:39:47.165Z,50.67
2018-10-18T18:42:16.090Z,45.57
2018-10-18T18:44:44.748Z,47.90
2018-10-18T18:47:14.475Z,46.50
2018-10-18T18:49:43.413Z,48.40
2018-10-18T18:52:13.825Z,44.53
2018-10-18T18:54:44.073Z,45.43
2018-10-18T18:57:19.576Z,48.67
2018-10-18T18:59:53.337Z,49.27
2018-10-18T19:02:29.018Z,48.53
2018-10-18T19:05:03.204Z,48.80
2018-10-18T19:07:32.473Z,47.60
2018-10-18T19:10:01.036Z,51.77
2018-10-18T19:12:34.237Z,50.53
2018-10-18T19:15:03.179Z,52.47
2018-10-18T19:17:36.475Z,51.43
2018-10-18T19:20:05.688Z,50.43
2018-10-18T19:22:39.761Z,49.87
2018-10-18T19:25:10.394Z,51.67
2018-10-18T19:27:41.033Z,52.03
2018-10-18T19:30:12.503Z,48.30
2018-10-18T19:32:41.206Z,50.63
2018-10-18T19:35:09.781Z,49.40
2018-10-18T19:37:38.379Z,56.27
2018-10-18T19:40:07.819Z,49.77
2018-10-18T19:42:36.388Z,51.67
2018-10-18T19:45:05.541Z,54.23
2018-10-18T19:47:34.109Z,51.47
2018-10-18T19:50:02.706Z,50.47
2018-10-18T19:52:31.376Z,50.33
2018-10-18T19:54:59.846Z,49.73
2018-10-18T19:57:28.533Z,49.67
2018-10-18T19:59:57.105Z,49.37
2018-10-18T20:02:26.017Z,46.03
2018-10-18T20:04:54.592Z,49.50
2018-10-18T20:07:23.224Z,46.23
2018-10-18T20:09:51.768Z,45.03
2018-10-18T20:12:20.367Z,47.57
2018-10-18T20:14:48.913Z,46.83
2018-10-18T20:17:17.480Z,48.97
2018-10-18T20:19:46.039Z,49.57
2018-10-18T20:22:14.629Z,44.80
2018-10-18T20:24:43.403Z,48.80
2018-10-18T20:27:12.156Z,49.00
2018-10-18T20:29:40.695Z,48.70
2018-10-18T20:32:09.336Z,44.47
2018-10-18T20:34:37.886Z,46.03
2018-10-18T20:37:06.876Z,45.87
2018-10-18T20:39:35.415Z,47.93
2018-10-18T20:42:04.012Z,46.40
2018-10-18T20:44:32.549Z,45.97
2018-10-18T20:47:01.124Z,45.13
2018-10-18T20:49:29.677Z,49.43
2018-10-18T20:51:58.249Z,52.33
2018-10-18T20:54:26.790Z,53.27
2018-10-18T20:56:55.413Z,54.00
2018-10-18T20:59:23.937Z,54.70
2018-10-18T21:01:52.517Z,52.27
2018-10-18T21:04:21.076Z,53.37
2018-10-18T21:06:49.639Z,51.57
2018-10-18T21:09:18.426Z,51.40
2018-10-18T21:11:47.018Z,50.67
2018-10-18T21:14:15.569Z,50.30
2018-10-18T21:16:44.205Z,51.03
2018-10-18T21:19:12.800Z,49.20
2018-10-18T21:21:41.406Z,49.70
2018-10-18T21:24:09.950Z,48.07
2018-10-18T21:26:38.493Z,50.80
2018-10-18T21:29:08.820Z,45.07
2018-10-18T21:31:38.102Z,48.63
2018-10-18T21:34:09.154Z,52.97
2018-10-18T21:36:38.501Z,52.10
2018-10-18T21:39:08.313Z,55.33
2018-10-18T21:41:38.430Z,49.50
2018-10-18T21:44:08.731Z,48.43
2018-10-18T21:46:38.976Z,53.47
2018-10-18T21:49:07.606Z,52.67
2018-10-18T21:51:37.728Z,51.63
2018-10-18T21:54:08.309Z,54.50
2018-10-18T21:56:42.914Z,49.93
2018-10-18T21:59:17.413Z,48.43
2018-10-18T22:01:52.250Z,49.57
2018-10-18T22:04:25.463Z,47.90
2018-10-18T22:06:57.287Z,47.73
2018-10-18T22:09:29.598Z,50.77
2018-10-18T22:12:03.331Z,50.07
2018-10-18T22:14:39.842Z,52.13
2018-10-18T22:17:08.506Z,48.20
2018-10-18T22:19:42.222Z,50.17
2018-10-18T22:22:16.313Z,47.60
2018-10-18T22:24:50.558Z,51.10
2018-10-18T22:27:26.803Z,44.57
2018-10-18T22:30:00.951Z,44.90
2018-10-18T22:32:29.665Z,46.80
2018-10-18T22:35:00.703Z,46.33
2018-10-18T22:37:34.443Z,41.83
2018-10-18T22:40:03.280Z,46.23
2018-10-18T22:42:37.210Z,38.90
2018-10-18T22:45:07.767Z,48.03
2018-10-18T22:47:41.418Z,47.67
2018-10-18T22:50:15.088Z,43.27
2018-10-18T22:52:49.030Z,43.23
2018-10-18T22:55:23.345Z,45.67
2018-10-18T22:57:57.025Z,44.53
2018-10-18T23:00:25.813Z,42.53
2018-10-18T23:02:54.369Z,42.73
2018-10-18T23:05:29.574Z,43.77
2018-10-18T23:07:58.121Z,48.40
2018-10-18T23:10:26.685Z,45.17
2018-10-18T23:12:55.209Z,41.80
2018-10-18T23:15:23.790Z,43.63
2018-10-18T23:17:52.336Z,42.23
2018-10-18T23:20:20.941Z,42.77
2018-10-18T23:22:49.499Z,44.90
2018-10-18T23:25:18.072Z,39.47
2018-10-18T23:27:46.621Z,44.60
2018-10-18T23:30:15.185Z,45.67
2018-10-18T23:32:43.725Z,52.27
2018-10-18T23:35:12.323Z,45.40
2018-10-18T23:37:40.848Z,51.27
2018-10-18T23:40:09.456Z,49.93
2018-10-18T23:42:38.005Z,41.37
2018-10-18T23:45:07.716Z,39.20
2018-10-18T23:47:36.272Z,40.90
2018-10-18T23:50:05.058Z,43.27
2018-10-18T23:52:33.596Z,42.43
2018-10-18T23:55:05.188Z,41.10
2018-10-18T23:57:34.863Z,38.00
